Alvin, Wisconsin
Current Conditions -  °F | °C
As of 12:55 AM on Thursday 23 Oct 2014 (Local Time) from KEGV Reporting Station
Broken Clouds Broken Clouds  
Wind Chill: 37°   Ceiling: 7500
Heat Index: 40°   Visibility: 10mi
Dew Point: 35°   Wind: 5mph
Humidity: 82%   Direction: 180°S
Pressure: 30.13"   Gusts: NA
Location:  45.9186°N, 88.7601°W
Report Text: KEGV 230555Z AUTO 18004KT 10SM SCT065 BKN075 04/02 A3013 RMK AO2 T00440015 10069 20040 401291040
Loading
Personal Weather Stations






























Interactive Weather Map New forecast layout! Learn more

10-Day Weather Forecast

Advertisements
Track Severe Weather on mobile